Time;durP1;ratioP1;P1;durP2;ratioP2;P2;SDS_P1;SDS_P2;PMS_P1;PMS_P2;Temp;Humidity;BMP_temperature;BMP_pressure;BME280_temperature;BME280_humidity;BME280_pressure;Samples;Min_cycle;Max_cycle;Signal;HPM_P1;HPM_P2
2022/05/12 03:01:34;;;;;;;3.05;2.85;;;26.80;47.80;;;;;;5418451;23;46539;-68
2022/05/12 03:04:20;;;;;;;3.47;3.17;;;26.80;47.80;;;;;;4879371;28;45064;-68
2022/05/12 03:07:05;;;;;;;3.50;3.25;;;26.80;47.80;;;;;;4893065;28;45557;-68
2022/05/12 03:09:51;;;;;;;3.28;3.05;;;26.80;47.80;;;;;;4874369;28;45598;-67
2022/05/12 03:12:36;;;;;;;3.50;3.20;;;26.80;47.90;;;;;;4879104;28;46759;-68
2022/05/12 03:15:23;;;;;;;3.15;2.95;;;26.80;47.90;;;;;;4853080;28;45560;-67
2022/05/12 03:18:09;;;;;;;3.80;3.50;;;26.70;47.80;;;;;;4890562;28;45680;-68
2022/05/12 03:20:54;;;;;;;3.25;3.05;;;26.80;47.90;;;;;;4895858;28;45736;-68
2022/05/12 03:23:40;;;;;;;3.58;3.28;;;26.80;47.90;;;;;;4885194;28;46816;-67
2022/05/12 03:26:26;;;;;;;3.30;3.10;;;26.70;47.80;;;;;;4885778;28;45665;-67
2022/05/12 03:29:11;;;;;;;3.47;3.17;;;26.70;47.80;;;;;;4888353;28;45321;-68
2022/05/12 03:31:57;;;;;;;3.47;3.20;;;26.70;47.80;;;;;;4885554;28;46321;-68
2022/05/12 03:34:44;;;;;;;3.58;3.28;;;26.70;47.90;;;;;;4903143;28;47121;-68
2022/05/12 03:37:29;;;;;;;3.30;3.10;;;26.70;47.90;;;;;;4880745;28;45589;-69
2022/05/12 03:40:17;;;;;;;2.97;2.78;;;26.70;47.90;;;;;;4895342;28;45011;-68
2022/05/12 03:43:02;;;;;;;4.05;3.65;;;26.80;47.90;;;;;;4901924;28;45557;-68
2022/05/12 03:45:48;;;;;;;3.25;3.05;;;26.80;47.90;;;;;;4893979;28;45500;-67
2022/05/12 03:48:37;;;;;;;3.55;3.25;;;26.70;47.90;;;;;;4881102;28;45508;-68
2022/05/12 03:51:22;;;;;;;2.88;2.63;;;26.70;47.90;;;;;;4896082;28;46272;-68
2022/05/12 03:54:08;;;;;;;3.38;3.17;;;26.70;47.80;;;;;;4903488;28;45114;-68
2022/05/12 03:56:54;;;;;;;3.65;3.35;;;26.70;47.80;;;;;;4906790;28;46431;-68
2022/05/12 03:59:39;;;;;;;3.22;3.03;;;26.80;47.90;;;;;;4900355;28;45489;-67
2022/05/12 04:02:25;;;;;;;3.63;3.35;;;26.80;47.90;;;;;;4891485;28;45423;-68
2022/05/12 04:05:10;;;;;;;3.10;2.90;;;26.70;47.80;;;;;;4889893;28;45277;-67
2022/05/12 04:07:56;;;;;;;3.50;3.20;;;26.70;47.80;;;;;;4894942;28;45566;-67
2022/05/12 04:10:41;;;;;;;3.65;3.35;;;26.70;47.90;;;;;;4893571;28;45506;-67
2022/05/12 04:13:27;;;;;;;2.97;2.78;;;26.70;47.80;;;;;;4895098;28;45298;-67
2022/05/12 04:16:15;;;;;;;3.72;3.42;;;26.70;47.80;;;;;;4887823;28;45439;-67
2022/05/12 04:19:01;;;;;;;3.60;3.30;;;26.70;47.90;;;;;;4900172;28;45571;-68
2022/05/12 04:21:46;;;;;;;3.53;3.22;;;26.70;47.90;;;;;;4908952;28;45455;-67
2022/05/12 04:24:32;;;;;;;3.45;3.15;;;26.70;47.80;;;;;;4889387;28;45464;-68
2022/05/12 04:27:17;;;;;;;3.40;3.10;;;26.70;47.90;;;;;;4896222;28;45452;-69
2022/05/12 04:30:04;;;;;;;3.40;3.10;;;26.70;47.90;;;;;;4902196;28;48133;-68
2022/05/12 04:32:50;;;;;;;3.47;3.17;;;26.70;48.50;;;;;;4890083;28;45734;-69
2022/05/12 04:35:35;;;;;;;3.40;3.17;;;26.70;47.90;;;;;;4882326;28;45436;-69
2022/05/12 04:38:21;;;;;;;3.50;3.20;;;26.70;47.90;;;;;;4888372;28;45648;-68
2022/05/12 04:41:08;;;;;;;3.20;2.90;;;26.70;47.90;;;;;;4899941;28;45964;-68
2022/05/12 04:43:54;;;;;;;3.45;3.20;;;26.70;47.90;;;;;;4907893;28;45424;-68
2022/05/12 04:46:40;;;;;;;3.70;3.40;;;26.70;48.50;;;;;;4880069;28;45338;-68
2022/05/12 04:49:26;;;;;;;3.50;3.20;;;26.70;47.90;;;;;;4906355;28;45068;-67
2022/05/12 04:52:12;;;;;;;3.22;3.03;;;26.70;47.90;;;;;;4885219;28;46690;-68
2022/05/12 04:54:57;;;;;;;3.40;3.10;;;26.70;47.90;;;;;;4891786;28;45660;-67
2022/05/12 04:57:45;;;;;;;3.00;2.80;;;26.70;47.90;;;;;;4896226;28;45554;-68
2022/05/12 05:00:36;;;;;;;3.30;3.10;;;26.60;47.80;;;;;;4893136;28;45338;-67
2022/05/12 05:03:21;;;;;;;3.30;3.00;;;26.60;47.80;;;;;;4899735;28;45223;-68
2022/05/12 05:06:07;;;;;;;2.88;2.67;;;26.60;47.80;;;;;;4889671;28;45550;-68
2022/05/12 05:08:52;;;;;;;3.47;3.17;;;26.60;47.80;;;;;;4878321;28;45012;-68
2022/05/12 05:11:38;;;;;;;2.90;2.70;;;26.70;47.90;;;;;;4891907;28;44990;-68
2022/05/12 05:14:24;;;;;;;2.92;2.72;;;26.60;47.80;;;;;;4890924;28;48360;-69
2022/05/12 05:17:09;;;;;;;3.33;2.67;;;26.60;47.90;;;;;;4901617;28;45281;-68
2022/05/12 05:19:55;;;;;;;2.78;2.58;;;26.70;47.80;;;;;;4905010;28;45173;-68
2022/05/12 05:22:40;;;;;;;2.97;2.78;;;26.80;47.70;;;;;;4890743;28;45159;-68
2022/05/12 05:25:26;;;;;;;3.40;3.10;;;26.90;47.50;;;;;;4906449;28;45298;-69
2022/05/12 05:28:13;;;;;;;3.25;2.95;;;27.00;47.30;;;;;;4908533;28;45413;-69
2022/05/12 05:30:39;;;;;;;3.03;2.83;;;27.00;47.10;;;;;;4890135;28;45697;-68
2022/05/12 05:33:06;;;;;;;3.20;2.95;;;27.10;47.00;;;;;;4912112;28;45009;-68
2022/05/12 05:35:31;;;;;;;3.40;3.20;;;27.10;46.90;;;;;;4898190;28;45853;-69
2022/05/12 05:37:57;;;;;;;3.10;2.90;;;27.10;46.90;;;;;;4898643;28;44885;-69
2022/05/12 05:40:25;;;;;;;3.33;3.03;;;27.10;47.00;;;;;;4928556;28;45273;-69
2022/05/12 05:42:51;;;;;;;3.88;3.55;;;27.00;47.00;;;;;;4916741;28;45165;-69
2022/05/12 05:45:17;;;;;;;3.25;2.95;;;26.90;47.10;;;;;;4927911;28;45284;-69
2022/05/12 05:47:46;;;;;;;2.80;2.60;;;26.90;47.20;;;;;;4902904;28;45220;-69
2022/05/12 05:50:14;;;;;;;3.30;3.00;;;26.90;47.30;;;;;;4896135;28;45414;-69
2022/05/12 05:55:23;;;;;;;3.47;3.13;;;26.90;47.30;;;;;;4911064;28;46252;-69
2022/05/12 05:57:49;;;;;;;3.20;2.90;;;26.90;47.30;;;;;;4895449;28;44897;-69
2022/05/12 06:00:17;;;;;;;3.50;3.20;;;26.90;47.30;;;;;;4914488;28;45422;-69
2022/05/12 06:02:42;;;;;;;3.40;3.20;;;26.90;47.30;;;;;;4913257;28;45483;-69
2022/05/12 06:05:08;;;;;;;3.78;3.47;;;26.90;47.30;;;;;;4914498;28;45426;-69
2022/05/12 06:07:38;;;;;;;2.92;2.72;;;26.90;47.20;;;;;;4906286;28;44827;-69
2022/05/12 06:10:06;;;;;;;3.28;2.97;;;26.90;47.30;;;;;;4899187;28;45159;-68
2022/05/12 06:12:32;;;;;;;2.85;2.65;;;26.90;47.30;;;;;;4916429;28;44713;-69
2022/05/12 06:14:59;;;;;;;3.15;2.95;;;26.80;47.20;;;;;;4906595;28;45399;-68
2022/05/12 06:17:24;;;;;;;2.85;2.65;;;26.90;47.30;;;;;;4916829;28;45847;-68
2022/05/12 06:19:50;;;;;;;3.00;2.80;;;26.80;47.20;;;;;;4901914;28;44916;-69
2022/05/12 06:22:19;;;;;;;2.80;2.60;;;26.80;47.30;;;;;;4898135;28;45222;-68
2022/05/12 06:24:47;;;;;;;2.75;2.55;;;26.80;47.30;;;;;;4897640;28;47036;-69
2022/05/12 06:27:14;;;;;;;2.92;2.72;;;26.80;47.40;;;;;;4916850;28;45606;-68
2022/05/12 06:29:41;;;;;;;3.10;2.90;;;26.80;47.40;;;;;;4908625;28;44988;-68
2022/05/12 06:32:07;;;;;;;3.67;3.38;;;26.80;47.30;;;;;;4900994;28;45842;-69
2022/05/12 06:34:34;;;;;;;3.47;3.15;;;26.80;47.30;;;;;;4888657;28;46878;-68
2022/05/12 06:36:59;;;;;;;2.80;2.60;;;26.80;47.30;;;;;;4920297;28;45023;-69
2022/05/12 06:39:26;;;;;;;2.78;2.58;;;26.80;47.30;;;;;;4895805;28;45559;-69
2022/05/12 06:41:52;;;;;;;2.90;2.50;;;26.80;47.30;;;;;;4907138;28;45073;-69
2022/05/12 06:44:19;;;;;;;3.60;3.30;;;26.80;47.30;;;;;;4892693;28;47129;-69
2022/05/12 06:46:44;;;;;;;3.30;3.08;;;26.80;47.30;;;;;;4906211;28;44950;-69
2022/05/12 06:49:10;;;;;;;2.95;2.75;;;26.80;47.30;;;;;;4919438;28;45374;-69
2022/05/12 06:51:36;;;;;;;2.83;2.63;;;26.80;47.20;;;;;;4894338;28;45642;-69
2022/05/12 06:54:02;;;;;;;3.42;2.90;;;26.80;47.20;;;;;;4910847;28;47369;-69
2022/05/12 06:56:28;;;;;;;2.83;2.63;;;26.70;47.20;;;;;;4895403;28;45578;-69
2022/05/12 06:58:54;;;;;;;2.85;2.65;;;26.70;47.20;;;;;;4903873;28;45274;-68
2022/05/12 07:01:20;;;;;;;3.45;3.15;;;26.80;47.20;;;;;;4909518;28;45062;-69
2022/05/12 07:03:45;;;;;;;3.40;3.10;;;26.80;47.20;;;;;;4914085;28;46140;-69
2022/05/12 07:06:11;;;;;;;3.22;3.03;;;26.80;47.10;;;;;;4898164;28;45462;-69
2022/05/12 07:08:41;;;;;;;3.35;3.05;;;26.80;47.10;;;;;;4903272;28;45516;-59
2022/05/12 07:11:10;;;;;;;3.20;2.90;;;26.80;47.00;;;;;;4910018;28;45581;-60
2022/05/12 07:13:36;;;;;;;3.72;2.83;;;26.80;47.00;;;;;;4931138;28;45567;-59
2022/05/12 07:16:02;;;;;;;3.00;2.80;;;26.80;47.00;;;;;;4913548;28;45206;-58
2022/05/12 07:18:27;;;;;;;2.80;2.60;;;26.80;47.00;;;;;;4931890;28;45498;-57
2022/05/12 07:26:40;;;;;;;3.28;2.97;;;26.90;47.00;;;;;;4929652;28;45199;-62
2022/05/12 07:29:17;;;;;;;3.40;3.10;;;26.90;47.00;;;;;;4919594;28;46103;-59
2022/05/12 07:31:43;;;;;;;3.67;3.10;;;26.90;47.00;;;;;;4894874;28;44874;-59
2022/05/12 07:34:09;;;;;;;3.85;2.90;;;26.90;47.00;;;;;;4927729;28;45413;-59
2022/05/12 07:36:41;;;;;;;3.38;3.08;;;27.00;47.00;;;;;;4904069;28;45221;-59
2022/05/12 07:39:06;;;;;;;3.33;3.10;;;27.00;46.90;;;;;;4898357;28;45196;-60
2022/05/12 07:41:32;;;;;;;3.35;3.15;;;27.00;46.90;;;;;;4901218;28;44999;-59
2022/05/12 07:43:58;;;;;;;3.33;2.97;;;27.00;46.90;;;;;;4925827;28;46300;-57
2022/05/12 07:46:28;;;;;;;4.32;2.90;;;27.00;46.90;;;;;;4904780;28;45254;-60
2022/05/12 07:48:54;;;;;;;3.05;2.80;;;27.00;46.80;;;;;;4911110;28;45106;-61
2022/05/12 07:51:20;;;;;;;2.92;2.72;;;27.10;46.90;;;;;;4928735;28;45019;-59
2022/05/12 07:53:47;;;;;;;3.22;3.00;;;27.10;46.80;;;;;;4917525;28;45832;-56
2022/05/12 07:56:14;;;;;;;2.97;2.78;;;27.10;46.80;;;;;;4902920;28;44993;-60
2022/05/12 07:58:40;;;;;;;3.20;2.90;;;27.10;46.80;;;;;;4907035;28;45575;-61
2022/05/12 08:01:06;;;;;;;3.75;3.17;;;27.10;47.40;;;;;;4928353;28;45478;-58
2022/05/12 08:03:31;;;;;;;3.58;2.80;;;27.10;46.80;;;;;;4935830;28;45508;-60
2022/05/12 08:05:58;;;;;;;3.20;2.90;;;27.10;46.70;;;;;;4916764;28;45635;-59
2022/05/12 08:08:23;;;;;;;2.95;2.75;;;27.20;46.70;;;;;;4911606;28;45615;-59
2022/05/12 08:10:49;;;;;;;2.97;2.67;;;27.20;46.70;;;;;;4932129;28;45184;-62
2022/05/12 08:13:16;;;;;;;2.63;2.42;;;27.20;46.70;;;;;;4928621;28;45379;-60
2022/05/12 08:15:49;;;;;;;3.15;2.90;;;27.20;46.60;;;;;;4904341;28;44684;-60
2022/05/12 08:18:22;;;;;;;4.13;2.65;;;27.20;46.50;;;;;;4910770;28;45291;-59
2022/05/12 08:20:48;;;;;;;4.18;3.30;;;27.30;46.60;;;;;;4927505;28;45137;-61
2022/05/12 08:23:14;;;;;;;2.67;2.47;;;27.30;47.00;;;;;;4907758;28;46085;-58
2022/05/12 08:25:40;;;;;;;3.30;3.00;;;27.30;46.60;;;;;;4902057;28;45018;-61
2022/05/12 08:28:06;;;;;;;4.22;2.67;;;27.30;46.60;;;;;;4927401;28;45090;-58
2022/05/12 08:30:31;;;;;;;3.10;2.80;;;27.30;46.50;;;;;;4916592;28;45234;-61
2022/05/12 08:32:58;;;;;;;2.78;2.58;;;27.30;46.50;;;;;;4908043;28;45513;-59
2022/05/12 08:35:24;;;;;;;3.20;2.80;;;27.40;46.60;;;;;;4936394;28;45473;-60
2022/05/12 08:37:49;;;;;;;2.63;2.42;;;27.40;46.60;;;;;;4939223;28;45354;-58
2022/05/12 08:40:29;;;;;;;3.00;2.70;;;27.40;46.60;;;;;;4913816;28;45221;-62
2022/05/12 08:42:55;;;;;;;5.55;3.13;;;27.40;46.60;;;;;;4935452;28;46316;-60
2022/05/12 08:45:21;;;;;;;2.95;2.60;;;27.40;46.50;;;;;;4897942;28;45153;-59
2022/05/12 08:47:48;;;;;;;5.13;3.03;;;27.50;46.50;;;;;;4910265;28;45225;-59
2022/05/12 08:50:30;;;;;;;5.88;2.95;;;27.50;46.40;;;;;;4913163;28;45145;-59
2022/05/12 08:53:01;;;;;;;3.20;2.90;;;27.50;46.30;;;;;;4926317;28;46096;-59
2022/05/12 08:55:31;;;;;;;2.65;2.45;;;27.50;46.40;;;;;;4912970;28;45500;-59
2022/05/12 08:58:08;;;;;;;3.50;3.20;;;27.60;46.40;;;;;;4931181;28;45567;-58
2022/05/12 09:01:04;;;;;;;3.30;3.00;;;27.60;46.20;;;;;;4891919;28;45367;-61
2022/05/12 09:03:39;;;;;;;3.63;2.70;;;27.60;46.20;;;;;;4917518;28;46279;-62
2022/05/12 09:06:27;;;;;;;3.15;2.75;;;27.60;46.20;;;;;;4910766;28;45429;-60
2022/05/12 09:09:02;;;;;;;3.42;2.90;;;27.60;46.10;;;;;;4917031;28;45179;-61
2022/05/12 09:11:45;;;;;;;5.68;2.90;;;27.70;46.10;;;;;;4914145;28;45124;-59
2022/05/12 09:14:34;;;;;;;3.33;3.10;;;27.70;46.00;;;;;;4920249;28;45515;-60
2022/05/12 09:16:59;;;;;;;4.13;2.60;;;27.70;45.80;;;;;;4922263;28;45312;-56
2022/05/12 09:19:26;;;;;;;3.25;3.03;;;27.70;46.10;;;;;;4899211;28;45094;-62
2022/05/12 09:21:51;;;;;;;2.67;2.47;;;27.70;46.10;;;;;;4909581;28;45156;-58
2022/05/12 09:24:17;;;;;;;5.95;2.88;;;27.80;46.00;;;;;;4932214;28;45244;-59
2022/05/12 09:26:51;;;;;;;4.30;2.60;;;27.80;45.90;;;;;;4926041;28;45212;-59
2022/05/12 09:29:23;;;;;;;2.88;2.53;;;27.80;45.80;;;;;;4908401;28;45626;-60
2022/05/12 09:31:56;;;;;;;2.55;2.35;;;27.80;45.80;;;;;;4932307;28;45232;-62
2022/05/12 09:34:31;;;;;;;2.47;2.28;;;27.80;45.80;;;;;;4915152;28;45732;-60
2022/05/12 09:37:01;;;;;;;3.05;2.80;;;27.80;45.70;;;;;;4926406;28;45733;-60
2022/05/12 09:39:37;;;;;;;3.83;2.70;;;27.90;45.70;;;;;;4904526;28;45444;-59
2022/05/12 09:42:05;;;;;;;3.88;2.72;;;27.90;45.50;;;;;;4910433;28;45344;-59
2022/05/12 09:44:31;;;;;;;3.08;2.70;;;27.90;45.70;;;;;;4910340;28;46899;-59
2022/05/12 09:47:13;;;;;;;4.32;2.70;;;27.90;45.60;;;;;;4931202;28;45256;-57
2022/05/12 09:49:40;;;;;;;6.43;2.63;;;27.90;45.40;;;;;;4907452;28;45591;-61
2022/05/12 09:52:31;;;;;;;2.90;2.60;;;27.90;45.50;;;;;;4909643;28;45624;-60
2022/05/12 09:55:15;;;;;;;3.40;2.63;;;28.00;45.20;;;;;;4905819;28;45514;-59
2022/05/12 09:57:46;;;;;;;2.90;2.42;;;28.00;45.30;;;;;;4922430;28;44678;-62
2022/05/12 10:00:25;;;;;;;3.00;2.38;;;28.00;45.40;;;;;;4921657;28;44887;-60
2022/05/12 10:08:26;;;;;;;4.43;2.47;;;28.00;45.30;;;;;;4895847;28;46623;-59
2022/05/12 10:10:54;;;;;;;2.63;2.38;;;28.10;45.30;;;;;;4899632;28;45496;-59
2022/05/12 10:13:32;;;;;;;4.25;2.20;;;28.10;45.30;;;;;;4921782;28;45305;-60
2022/05/12 10:15:58;;;;;;;2.80;2.60;;;28.10;45.00;;;;;;4938348;28;45339;-59
2022/05/12 10:18:34;;;;;;;3.45;2.47;;;28.10;45.20;;;;;;4910713;28;45243;-56
2022/05/12 10:21:11;;;;;;;2.97;2.67;;;28.10;44.90;;;;;;4928167;28;45597;-58
2022/05/12 10:23:43;;;;;;;3.58;2.55;;;28.10;44.80;;;;;;4912052;28;44786;-60
2022/05/12 10:26:20;;;;;;;4.65;2.90;;;28.10;45.10;;;;;;4911811;28;45354;-59
2022/05/12 10:28:53;;;;;;;3.47;2.50;;;28.10;44.80;;;;;;4895089;28;45398;-59
2022/05/12 10:31:48;;;;;;;2.73;2.53;;;28.20;44.90;;;;;;4894506;28;45164;-61
2022/05/12 10:34:44;;;;;;;3.65;2.22;;;28.10;44.70;;;;;;4898353;28;45369;-60
2022/05/12 10:37:25;;;;;;;4.18;2.10;;;28.10;44.90;;;;;;4907951;28;45335;-59
2022/05/12 10:40:02;;;;;;;2.67;2.47;;;28.20;44.90;;;;;;4912123;28;45227;-60
2022/05/12 10:42:40;;;;;;;2.78;2.45;;;28.20;44.90;;;;;;4901711;28;45147;-61
2022/05/12 10:45:43;;;;;;;7.28;2.30;;;28.20;45.10;;;;;;4922283;28;45208;-61
2022/05/12 10:48:42;;;;;;;2.55;2.35;;;28.20;44.70;;;;;;4919988;28;46515;-61
2022/05/12 10:51:35;;;;;;;2.55;2.08;;;28.20;44.90;;;;;;4907957;28;45140;-67
2022/05/12 10:54:27;;;;;;;2.92;2.58;;;28.20;44.70;;;;;;4915538;28;45336;-68
2022/05/12 10:56:55;;;;;;;4.55;2.15;;;28.20;44.70;;;;;;4894971;28;45510;-67
2022/05/12 10:59:32;;;;;;;2.45;2.25;;;28.20;44.90;;;;;;4909831;28;45483;-67
2022/05/12 11:02:10;;;;;;;2.30;2.10;;;28.20;44.70;;;;;;4887206;28;45382;-69
2022/05/12 11:04:37;;;;;;;3.65;2.25;;;28.20;44.90;;;;;;4890612;28;45331;-68
2022/05/12 11:07:12;;;;;;;2.33;2.15;;;28.20;44.80;;;;;;4917744;28;45396;-68
2022/05/12 11:09:43;;;;;;;2.50;2.30;;;28.20;44.50;;;;;;4908366;28;45604;-68
2022/05/12 11:12:45;;;;;;;2.65;2.45;;;28.20;44.70;;;;;;4908492;28;47505;-70
2022/05/12 11:15:32;;;;;;;3.58;2.60;;;28.30;44.40;;;;;;4908020;28;45015;-70
2022/05/12 11:18:02;;;;;;;2.30;2.10;;;28.30;44.80;;;;;;4896504;28;45474;-68
2022/05/12 11:20:28;;;;;;;2.90;2.40;;;28.30;44.80;;;;;;4906608;28;45442;-68
2022/05/12 11:23:25;;;;;;;2.83;2.15;;;28.30;44.70;;;;;;4905827;28;45531;-70
2022/05/12 11:26:08;;;;;;;2.92;2.20;;;28.30;44.50;;;;;;4921667;28;46739;-69
2022/05/12 11:31:47;;;;;;;4.68;2.47;;;28.30;44.80;;;;;;4909855;28;45514;-69
2022/05/12 11:34:20;;;;;;;2.83;2.08;;;28.40;44.60;;;;;;4919700;28;45247;-70
2022/05/12 11:36:50;;;;;;;;;;;28.30;44.60;;;;;;4896468;28;45565;-69
2022/05/12 11:39:32;;;;;;;4.07;2.50;;;28.40;44.40;;;;;;4914794;28;45149;-69
2022/05/12 11:42:18;;;;;;;2.85;2.10;;;28.40;44.60;;;;;;4898472;28;47497;-68
2022/05/12 11:44:45;;;;;;;2.53;2.15;;;28.40;44.50;;;;;;4931457;28;44916;-69
2022/05/12 11:47:47;;;;;;;2.40;2.20;;;28.40;44.70;;;;;;4914894;28;44889;-69
2022/05/12 11:50:34;;;;;;;2.10;2.00;;;28.40;44.50;;;;;;4903957;28;45293;-69
2022/05/12 11:53:23;;;;;;;3.80;2.00;;;28.40;44.60;;;;;;4907883;28;46779;-69
2022/05/12 11:56:11;;;;;;;2.15;1.95;;;28.50;44.40;;;;;;4908797;28;45406;-69
2022/05/12 11:58:42;;;;;;;2.58;1.98;;;28.50;44.50;;;;;;4912178;28;45452;-70
2022/05/12 12:01:10;;;;;;;2.78;1.92;;;28.40;44.60;;;;;;4905092;28;44927;-68
2022/05/12 12:03:49;;;;;;;2.63;1.92;;;28.50;44.70;;;;;;4907691;28;45449;-69
2022/05/12 12:06:51;;;;;;;3.45;2.05;;;28.50;44.50;;;;;;4894237;28;45516;-68
2022/05/12 12:09:25;;;;;;;2.72;2.25;;;28.50;44.40;;;;;;4898074;28;45573;-68
2022/05/12 12:11:51;;;;;;;4.82;2.28;;;28.50;44.50;;;;;;4928557;28;45611;-68
2022/05/12 12:14:50;;;;;;;3.55;1.88;;;28.50;44.60;;;;;;4924113;28;45972;-69
2022/05/12 12:17:25;;;;;;;2.40;2.20;;;28.50;44.10;;;;;;4927712;28;45162;-69
2022/05/12 12:19:56;;;;;;;2.30;2.10;;;28.50;44.30;;;;;;4911434;28;44778;-68
2022/05/12 12:22:37;;;;;;;2.20;1.95;;;28.50;44.50;;;;;;4913218;28;45496;-69
2022/05/12 12:25:02;;;;;;;1.80;1.70;;;28.50;44.40;;;;;;4910651;28;45369;-68
2022/05/12 12:27:52;;;;;;;2.28;2.10;;;28.60;44.40;;;;;;4929139;28;45323;-68
2022/05/12 12:30:30;;;;;;;1.80;1.70;;;28.60;44.50;;;;;;4889268;28;44966;-70
2022/05/12 12:33:37;;;;;;;3.53;1.92;;;28.60;44.30;;;;;;4912009;28;45279;-69
2022/05/12 12:36:03;;;;;;;2.70;1.92;;;28.60;44.30;;;;;;4902594;28;47128;-69
2022/05/12 12:38:44;;;;;;;4.53;2.10;;;28.70;44.50;;;;;;4928005;28;45015;-68
2022/05/12 12:41:10;;;;;;;2.20;2.00;;;28.70;44.40;;;;;;4916307;28;45628;-68
2022/05/12 12:43:37;;;;;;;2.15;2.05;;;28.70;44.50;;;;;;4922362;28;45770;-69
2022/05/12 12:46:17;;;;;;;1.90;1.80;;;28.70;44.40;;;;;;4896130;28;46924;-69
2022/05/12 12:48:48;;;;;;;3.42;1.80;;;28.70;44.30;;;;;;4925744;28;45621;-69
2022/05/12 12:51:26;;;;;;;3.78;2.42;;;28.70;44.50;;;;;;4909478;28;45081;-70
2022/05/12 12:56:35;;;;;;;2.17;1.90;;;28.70;44.50;;;;;;4915690;28;45539;-70
2022/05/12 12:59:08;;;;;;;2.35;2.15;;;28.70;44.50;;;;;;4915232;28;45373;-70
2022/05/12 13:01:54;;;;;;;1.90;1.80;;;28.70;44.20;;;;;;4910305;28;45328;-70
2022/05/12 13:04:28;;;;;;;1.83;1.67;;;28.70;43.90;;;;;;4925955;28;45289;-69
2022/05/12 13:07:24;;;;;;;1.77;1.67;;;28.70;44.40;;;;;;4913893;28;45230;-68
2022/05/12 13:09:52;;;;;;;1.67;1.58;;;28.80;44.10;;;;;;4913900;28;45769;-70
2022/05/12 13:12:18;;;;;;;2.10;1.77;;;28.80;44.50;;;;;;4897884;28;44668;-69
2022/05/12 13:14:45;;;;;;;2.20;1.77;;;28.80;44.40;;;;;;4898328;28;45744;-69
2022/05/12 13:17:22;;;;;;;2.05;1.85;;;28.80;44.40;;;;;;4892705;28;46679;-68
2022/05/12 13:19:47;;;;;;;1.95;1.70;;;28.80;44.20;;;;;;4895592;28;45426;-68
2022/05/12 13:22:23;;;;;;;1.80;1.70;;;28.80;44.40;;;;;;4921298;28;45138;-67
2022/05/12 13:24:49;;;;;;;2.10;1.90;;;28.80;44.20;;;;;;4924214;28;45424;-67
2022/05/12 13:27:16;;;;;;;2.13;1.92;;;28.80;44.30;;;;;;4913360;28;45313;-67
2022/05/12 13:29:41;;;;;;;1.70;1.60;;;28.80;44.20;;;;;;4911425;28;45209;-67
2022/05/12 13:32:30;;;;;;;1.80;1.70;;;28.80;44.30;;;;;;4921669;28;45259;-68
2022/05/12 13:34:57;;;;;;;1.80;1.67;;;28.80;44.30;;;;;;4919240;28;45245;-69
2022/05/12 13:37:25;;;;;;;2.08;1.88;;;28.80;44.30;;;;;;4902352;28;46023;-70
2022/05/12 13:39:53;;;;;;;1.77;1.67;;;28.80;44.20;;;;;;4908449;28;45303;-69
2022/05/12 13:42:46;;;;;;;1.70;1.60;;;28.90;44.30;;;;;;4911966;28;45273;-69
2022/05/12 13:45:25;;;;;;;2.60;1.83;;;28.90;44.10;;;;;;4897640;28;45128;-68
2022/05/12 13:47:53;;;;;;;1.98;1.88;;;28.90;44.10;;;;;;4914567;28;45237;-68
2022/05/12 13:50:19;;;;;;;4.93;1.83;;;28.90;44.20;;;;;;4894512;28;44806;-68
2022/05/12 13:52:56;;;;;;;1.90;1.80;;;28.90;44.30;;;;;;4917058;28;44726;-68
2022/05/12 13:55:26;;;;;;;1.95;1.60;;;28.90;44.20;;;;;;4916888;28;45466;-68
2022/05/12 13:57:55;;;;;;;1.67;1.58;;;28.90;44.30;;;;;;4929845;28;45486;-69
2022/05/12 14:00:47;;;;;;;1.88;1.67;;;28.90;44.30;;;;;;4921612;28;46117;-69
2022/05/12 14:03:30;;;;;;;1.92;1.67;;;28.90;44.30;;;;;;4901118;28;45209;-68
2022/05/12 14:06:19;;;;;;;2.10;1.90;;;28.90;44.40;;;;;;4921722;28;45614;-67
2022/05/12 14:08:45;;;;;;;2.10;1.90;;;28.90;44.30;;;;;;4912903;28;46683;-68
2022/05/12 14:11:15;;;;;;;2.65;1.63;;;28.90;44.40;;;;;;4911832;28;45214;-68
2022/05/12 14:19:36;;;;;;;1.63;1.38;;;28.90;44.30;;;;;;4909627;28;45573;-68
2022/05/12 14:22:13;;;;;;;1.70;1.38;;;28.90;44.50;;;;;;4896616;28;45174;-68
2022/05/12 14:24:42;;;;;;;1.40;1.25;;;29.00;44.40;;;;;;4914097;28;45373;-69
2022/05/12 14:27:10;;;;;;;2.67;1.65;;;28.90;44.50;;;;;;4919117;28;44845;-69
2022/05/12 14:29:35;;;;;;;1.60;1.50;;;29.00;44.50;;;;;;4921736;28;45587;-67
2022/05/12 14:32:01;;;;;;;1.65;1.55;;;28.90;44.50;;;;;;4920876;28;44674;-67
2022/05/12 14:34:26;;;;;;;1.77;1.60;;;29.00;44.50;;;;;;4928796;28;44816;-67
2022/05/12 14:36:52;;;;;;;3.53;1.98;;;29.00;44.60;;;;;;4914840;28;45506;-69
2022/05/12 14:39:18;;;;;;;1.80;1.70;;;29.00;44.50;;;;;;4914964;28;46786;-68
2022/05/12 14:41:44;;;;;;;2.92;1.90;;;29.00;44.50;;;;;;4919000;28;44931;-67
2022/05/12 14:44:10;;;;;;;2.10;1.63;;;29.00;44.50;;;;;;4916890;28;45236;-68
2022/05/12 14:46:39;;;;;;;1.70;1.60;;;29.00;44.50;;;;;;4921800;28;44737;-69
2022/05/12 14:49:05;;;;;;;4.00;1.50;;;29.00;44.40;;;;;;4920995;28;47148;-68
2022/05/12 14:51:31;;;;;;;2.47;1.85;;;29.00;44.40;;;;;;4909465;28;44964;-68
2022/05/12 14:53:56;;;;;;;1.85;1.75;;;29.00;44.40;;;;;;4904525;28;46066;-68
2022/05/12 14:56:23;;;;;;;2.35;1.77;;;29.00;44.40;;;;;;4918804;28;44998;-67
2022/05/12 14:58:48;;;;;;;3.50;1.50;;;29.00;44.40;;;;;;4928014;28;45673;-68
2022/05/12 15:01:14;;;;;;;1.65;1.55;;;29.00;44.40;;;;;;4932911;28;45327;-67
2022/05/12 15:03:41;;;;;;;2.15;1.73;;;29.00;44.40;;;;;;4901374;28;45250;-68
2022/05/12 15:06:07;;;;;;;1.90;1.70;;;29.00;44.40;;;;;;4920237;28;45300;-68
2022/05/12 15:08:34;;;;;;;1.50;1.40;;;29.00;44.40;;;;;;4897577;28;45368;-69
2022/05/12 15:11:00;;;;;;;3.33;1.90;;;29.00;44.30;;;;;;4919028;28;44623;-69
2022/05/12 15:13:25;;;;;;;2.20;1.70;;;29.00;44.30;;;;;;4925982;28;45230;-68
2022/05/12 15:15:54;;;;;;;1.88;1.40;;;29.00;44.30;;;;;;4920362;28;45102;-68
2022/05/12 15:18:19;;;;;;;2.05;1.85;;;29.00;44.40;;;;;;4910595;28;46470;-69
2022/05/12 15:20:45;;;;;;;3.13;1.52;;;29.00;44.40;;;;;;4905003;28;45540;-69
2022/05/12 15:23:10;;;;;;;1.80;1.63;;;29.00;44.40;;;;;;4909775;28;44957;-69
2022/05/12 15:25:36;;;;;;;2.42;1.70;;;29.00;44.40;;;;;;4912709;28;45329;-69
2022/05/12 15:28:02;;;;;;;2.13;1.63;;;29.00;44.30;;;;;;4910153;28;46392;-68
2022/05/12 15:30:29;;;;;;;2.15;1.40;;;29.00;44.30;;;;;;4919070;28;45555;-69
2022/05/12 15:32:55;;;;;;;1.58;1.48;;;29.00;44.30;;;;;;4921441;28;45568;-69
2022/05/12 15:35:21;;;;;;;3.67;1.60;;;29.00;44.40;;;;;;4932232;28;45058;-69
2022/05/12 15:37:46;;;;;;;1.85;1.60;;;28.90;44.20;;;;;;4916051;28;45310;-68
2022/05/12 15:40:15;;;;;;;1.67;1.58;;;28.90;44.30;;;;;;4916553;28;45040;-70
2022/05/12 15:42:41;;;;;;;1.80;1.70;;;28.90;44.30;;;;;;4931414;28;44905;-69
2022/05/12 15:45:07;;;;;;;1.90;1.63;;;28.90;44.30;;;;;;4896216;28;45148;-69
2022/05/12 15:47:34;;;;;;;1.73;1.63;;;28.90;44.30;;;;;;4923841;28;45679;-69
2022/05/12 15:50:00;;;;;;;2.08;1.80;;;28.90;44.30;;;;;;4900563;28;45395;-68
2022/05/12 15:52:27;;;;;;;2.10;1.60;;;28.80;44.20;;;;;;4919124;28;45208;-69
2022/05/12 15:54:53;;;;;;;5.28;1.50;;;28.80;44.20;;;;;;4914765;28;44684;-69
2022/05/12 15:57:18;;;;;;;1.77;1.58;;;28.80;44.20;;;;;;4921690;28;45307;-69
2022/05/12 15:59:49;;;;;;;1.88;1.50;;;28.80;44.20;;;;;;4896647;28;45459;-69
2022/05/12 16:02:19;;;;;;;2.78;1.80;;;28.80;44.20;;;;;;4929229;28;44829;-69
2022/05/12 16:04:44;;;;;;;2.50;1.67;;;28.80;44.30;;;;;;4914124;28;44864;-68
2022/05/12 16:07:10;;;;;;;2.92;1.45;;;28.80;44.20;;;;;;4917892;28;45537;-69
2022/05/12 16:09:36;;;;;;;2.00;1.83;;;28.80;44.20;;;;;;4899756;28;45267;-69
2022/05/12 16:14:38;;;;;;;1.73;1.60;;;28.80;44.20;;;;;;4904868;28;45291;-69
2022/05/12 16:17:04;;;;;;;2.10;1.60;;;28.80;44.10;;;;;;4904753;28;46986;-69
2022/05/12 16:19:30;;;;;;;1.67;1.52;;;28.80;44.00;;;;;;4934072;28;45192;-69
2022/05/12 16:21:56;;;;;;;1.63;1.52;;;28.70;44.00;;;;;;4939934;28;45389;-69
2022/05/12 16:24:22;;;;;;;4.25;1.70;;;28.80;44.00;;;;;;4912417;28;45455;-69
2022/05/12 16:26:50;;;;;;;1.58;1.45;;;28.70;43.90;;;;;;4916496;28;45716;-69
2022/05/12 16:29:43;;;;;;;1.77;1.55;;;28.70;43.90;;;;;;4912102;28;45597;-69
2022/05/12 16:32:10;;;;;;;1.88;1.50;;;28.70;43.70;;;;;;4915789;28;45177;-69
2022/05/12 16:34:37;;;;;;;1.95;1.30;;;28.70;44.70;;;;;;4918019;28;45403;-69
2022/05/12 16:37:03;;;;;;;1.73;1.60;;;28.70;44.10;;;;;;4898498;28;46830;-69
2022/05/12 16:39:28;;;;;;;1.95;1.52;;;28.70;44.10;;;;;;4902232;28;45293;-69
2022/05/12 16:41:55;;;;;;;1.50;1.40;;;28.70;44.10;;;;;;4938489;28;45396;-69
2022/05/12 16:44:20;;;;;;;1.50;1.40;;;28.60;44.00;;;;;;4901152;28;45262;-70
2022/05/12 16:46:47;;;;;;;2.67;1.75;;;28.60;44.10;;;;;;4914590;28;45646;-69
2022/05/12 16:49:20;;;;;;;4.05;1.40;;;28.60;44.10;;;;;;4931099;28;44943;-68
2022/05/12 16:51:47;;;;;;;1.73;1.58;;;28.60;44.20;;;;;;4903273;28;45170;-69